| time (UTC) | temp F | wind direction | speed MPH | gust MPH | rain 1hr in | rain 24hr in | rain mn in | humidity % | barometer mb |
| 20260507195530 | 59 | 0 | 0.0 | 3.0 | 0.03 | 0.04 | 0.04 | 90 | 1015.0 |
| 20260507195251 | 60 | 238 | 0.0 | 2.0 | 0.01 | 0.02 | 0.02 | 91 | 1014.7 |
| 20260507195029 | 59 | 0 | 0.0 | 3.0 | 0.02 | 0.03 | 0.03 | 90 | 1014.9 |
| 20260507194751 | 60 | 238 | 1.0 | 2.0 | 0.01 | 0.02 | 0.02 | 91 | 1014.7 |
| 20260507194541 | 59 | 238 | 1.0 | 3.0 | 0.02 | 0.03 | 0.03 | 90 | 1015.0 |
| 20260507194252 | 60 | 238 | 1.0 | 3.0 | 0.01 | 0.02 | 0.02 | 90 | 1014.7 |
| 20260507194028 | 60 | 238 | 0.0 | 4.0 | 0.02 | 0.03 | 0.03 | 90 | 1014.9 |
| 20260507193528 | 60 | 247 | 1.0 | 4.0 | 0.02 | 0.03 | 0.03 | 90 | 1014.8 |
| 20260507193240 | 60 | 240 | 2.0 | 5.0 | 0.01 | 0.02 | 0.02 | 90 | 1014.5 |
| 20260507193041 | 60 | 285 | 2.0 | 7.0 | 0.01 | 0.03 | 0.03 | 89 | 1014.7 |
| 20260507192739 | 60 | 278 | 2.0 | 6.0 | 0.01 | 0.02 | 0.02 | 90 | 1014.4 |
| 20260507192529 | 60 | 266 | 2.0 | 7.0 | 0.00 | 0.02 | 0.02 | 89 | 1014.7 |
| 20260507192237 | 60 | 264 | 3.0 | 6.0 | 0.00 | 0.01 | 0.01 | 89 | 1014.4 |
| 20260507192028 | 60 | 251 | 3.0 | 8.0 | 0.00 | 0.02 | 0.02 | 88 | 1014.7 |
| 20260507191735 | 60 | 254 | 2.0 | 7.0 | 0.00 | 0.01 | 0.01 | 88 | 1014.4 |
| 20260507191547 | 60 | 244 | 3.0 | 8.0 | 0.00 | 0.02 | 0.02 | 88 | 1014.6 |
| 20260507191228 | 60 | 240 | 4.0 | 8.0 | 0.00 | 0.01 | 0.01 | 88 | 1014.3 |
| 20260507191029 | 60 | 257 | 4.0 | 8.0 | 0.00 | 0.01 | 0.01 | 87 | 1014.6 |
| 20260507190727 | 60 | 236 | 5.0 | 8.0 | 0.00 | 0.01 | 0.01 | 88 | 1014.3 |
| 20260507190529 | 60 | 241 | 3.0 | 8.0 | 0.00 | 0.01 | 0.01 | 87 | 1014.4 |
| 20260507190225 | 60 | 242 | 4.0 | 8.0 | 0.00 | 0.01 | 0.01 | 88 | 1014.1 |
| 20260507190050 | 60 | 240 | 3.0 | 7.0 | 0.00 | 0.01 | 0.01 | 87 | 1014.4 |
| 20260507185723 | 60 | 241 | 3.0 | 7.0 | 0.00 | 0.01 | 0.01 | 87 | 1014.1 |
| 20260507185529 | 60 | 200 | 2.0 | 7.0 | 0.00 | 0.01 | 0.01 | 87 | 1014.4 |
| 20260507185029 | 60 | 236 | 3.0 | 9.0 | 0.00 | 0.01 | 0.01 | 87 | 1014.3 |
| 20260507184720 | 60 | 238 | 4.0 | 9.0 | 0.00 | 0.01 | 0.01 | 87 | 1014.0 |
| 20260507184542 | 60 | 240 | 3.0 | 9.0 | 0.00 | 0.01 | 0.01 | 87 | 1014.3 |
| 20260507184219 | 60 | 232 | 4.0 | 9.0 | 0.00 | 0.01 | 0.01 | 87 | 1014.0 |
| 20260507184028 | 60 | 230 | 2.0 | 5.0 | 0.00 | 0.01 | 0.01 | 87 | 1014.2 |
| 20260507183528 | 60 | 236 | 2.0 | 5.0 | 0.00 | 0.01 | 0.01 | 87 | 1014.1 |
| 20260507183047 | 60 | 231 | 2.0 | 4.0 | 0.00 | 0.01 | 0.01 | 87 | 1014.0 |
| 20260507182714 | 61 | 231 | 2.0 | 4.0 | 0.00 | 0.01 | 0.01 | 87 | 1013.7 |
| 20260507182529 | 60 | 248 | 2.0 | 4.0 | 0.00 | 0.01 | 0.01 | 87 | 1014.0 |
| 20260507182212 | 61 | 227 | 2.0 | 4.0 | 0.00 | 0.01 | 0.01 | 87 | 1013.7 |
| 20260507182029 | 60 | 212 | 1.0 | 4.0 | 0.00 | 0.01 | 0.01 | 87 | 1013.9 |
| 20260507181711 | 61 | 248 | 1.0 | 4.0 | 0.00 | 0.01 | 0.01 | 87 | 1013.6 |
| 20260507181540 | 61 | 214 | 2.0 | 4.0 | 0.00 | 0.01 | 0.01 | 86 | 1013.9 |
| 20260507181208 | 61 | 220 | 2.0 | 5.0 | 0.00 | 0.01 | 0.01 | 87 | 1013.6 |
| 20260507181030 | 61 | 227 | 2.0 | 5.0 | 0.00 | 0.01 | 0.01 | 86 | 1013.7 |
| 20260507180709 | 61 | 244 | 2.0 | 5.0 | 0.00 | 0.01 | 0.01 | 87 | 1013.6 |
| 20260507180530 | 61 | 242 | 2.0 | 8.0 | 0.00 | 0.01 | 0.01 | 87 | 1013.8 |
| 20260507180205 | 61 | 259 | 2.0 | 8.0 | 0.00 | 0.01 | 0.01 | 87 | 1013.5 |
| 20260507180052 | 61 | 240 | 2.0 | 8.0 | 0.00 | 0.01 | 0.01 | 86 | 1013.7 |
| 20260507175529 | 61 | 217 | 2.0 | 8.0 | 0.00 | 0.01 | 0.01 | 86 | 1013.7 |
| 20260507175202 | 62 | 254 | 2.0 | 4.0 | 0.00 | 0.01 | 0.01 | 87 | 1013.5 |
| 20260507175029 | 61 | 184 | 2.0 | 5.0 | 0.00 | 0.01 | 0.01 | 86 | 1013.7 |
| 20260507174701 | 62 | 212 | 2.0 | 5.0 | 0.00 | 0.01 | 0.01 | 87 | 1013.5 |
| 20260507174546 | 61 | 211 | 1.0 | 6.0 | 0.00 | 0.01 | 0.01 | 86 | 1013.8 |
| 20260507174203 | 62 | 238 | 2.0 | 6.0 | 0.00 | 0.01 | 0.01 | 86 | 1013.4 |
| 20260507174029 | 62 | 244 | 2.0 | 7.0 | 0.00 | 0.01 | 0.01 | 85 | 1013.7 |
| 20260507173657 | 62 | 234 | 2.0 | 6.0 | 0.00 | 0.01 | 0.01 | 85 | 1013.4 |
| 20260507173529 | 62 | 207 | 2.0 | 7.0 | 0.00 | 0.01 | 0.01 | 85 | 1013.8 |
| 20260507173156 | 62 | 163 | 3.0 | 5.0 | 0.00 | 0.01 | 0.01 | 85 | 1013.5 |
| 20260507173051 | 62 | 197 | 2.0 | 5.0 | 0.00 | 0.01 | 0.01 | 84 | 1013.7 |
| 20260507172654 | 62 | 220 | 3.0 | 8.0 | 0.00 | 0.01 | 0.01 | 85 | 1013.5 |
| 20260507172529 | 62 | 201 | 2.0 | 8.0 | 0.00 | 0.01 | 0.01 | 84 | 1013.8 |
| 20260507172142 | 62 | 192 | 2.0 | 9.0 | 0.00 | 0.01 | 0.01 | 84 | 1013.5 |
| 20260507172028 | 62 | 197 | 3.0 | 9.0 | 0.00 | 0.01 | 0.01 | 84 | 1013.8 |
| 20260507171640 | 62 | 208 | 3.0 | 9.0 | 0.00 | 0.01 | 0.01 | 84 | 1013.5 |
| 20260507171543 | 62 | 181 | 3.0 | 9.0 | 0.00 | 0.01 | 0.01 | 83 | 1013.7 |
| 20260507171138 | 63 | 200 | 3.0 | 6.0 | 0.00 | 0.01 | 0.01 | 84 | 1013.5 |
| 20260507171029 | 62 | 173 | 3.0 | 7.0 | 0.00 | 0.01 | 0.01 | 83 | 1013.7 |
| 20260507170637 | 63 | 207 | 3.0 | 7.0 | 0.00 | 0.01 | 0.01 | 83 | 1013.4 |
| 20260507170530 | 62 | 182 | 2.0 | 7.0 | 0.00 | 0.01 | 0.01 | 82 | 1013.7 |
| 20260507170136 | 63 | 203 | 4.0 | 8.0 | 0.00 | 0.01 | 0.01 | 82 | 1013.5 |
| 20260507170041 | 63 | 184 | 2.0 | 8.0 | 0.00 | 0.01 | 0.01 | 82 | 1013.6 |
| 20260507165634 | 63 | 223 | 4.0 | 9.0 | 0.00 | 0.01 | 0.01 | 82 | 1013.5 |
| 20260507165528 | 63 | 156 | 4.0 | 9.0 | 0.00 | 0.01 | 0.01 | 81 | 1013.7 |
| 20260507165132 | 63 | 182 | 2.0 | 10.0 | 0.00 | 0.01 | 0.01 | 82 | 1013.4 |
| 20260507165032 | 63 | 198 | 4.0 | 12.0 | 0.00 | 0.01 | 0.01 | 82 | 1013.7 |
| 20260507164630 | 63 | 188 | 5.0 | 10.0 | 0.00 | 0.01 | 0.01 | 82 | 1013.4 |
| 20260507164540 | 63 | 178 | 4.0 | 12.0 | 0.00 | 0.01 | 0.01 | 81 | 1013.7 |
| 20260507164133 | 63 | 190 | 6.0 | 10.0 | 0.00 | 0.01 | 0.01 | 82 | 1013.3 |
| 20260507164033 | 63 | 229 | 5.0 | 11.0 | 0.00 | 0.01 | 0.01 | 81 | 1013.6 |
| 20260507163633 | 64 | 192 | 4.0 | 12.0 | 0.00 | 0.01 | 0.01 | 81 | 1013.4 |
| 20260507163529 | 63 | 154 | 4.0 | 12.0 | 0.00 | 0.01 | 0.01 | 80 | 1013.6 |
| 20260507163126 | 64 | 149 | 6.0 | 12.0 | 0.00 | 0.01 | 0.01 | 81 | 1013.3 |
| 20260507163047 | 63 | 175 | 5.0 | 12.0 | 0.00 | 0.01 | 0.01 | 80 | 1013.5 |
| 20260507162624 | 64 | 173 | 4.0 | 12.0 | 0.00 | 0.01 | 0.01 | 80 | 1013.2 |
| 20260507162529 | 63 | 135 | 5.0 | 12.0 | 0.00 | 0.01 | 0.01 | 80 | 1013.5 |
| 20260507162122 | 64 | 203 | 6.0 | 12.0 | 0.00 | 0.01 | 0.01 | 80 | 1013.3 |
| 20260507162029 | 64 | 124 | 4.0 | 12.0 | 0.00 | 0.01 | 0.01 | 80 | 1013.6 |
| 20260507161621 | 64 | 190 | 5.0 | 11.0 | 0.00 | 0.01 | 0.01 | 80 | 1013.2 |
| 20260507161545 | 64 | 187 | 6.0 | 11.0 | 0.00 | 0.01 | 0.01 | 79 | 1013.6 |
| 20260507161029 | 64 | 156 | 6.0 | 10.0 | 0.00 | 0.01 | 0.01 | 79 | 1013.6 |
| 20260507160618 | 65 | 163 | 5.0 | 10.0 | 0.00 | 0.01 | 0.01 | 78 | 1013.3 |
| 20260507160533 | 64 | 170 | 4.0 | 10.0 | 0.00 | 0.01 | 0.01 | 77 | 1013.6 |
| 20260507160116 | 65 | 131 | 6.0 | 10.0 | 0.00 | 0.01 | 0.01 | 78 | 1013.4 |
| 20260507160051 | 64 | 139 | 5.0 | 10.0 | 0.00 | 0.01 | 0.01 | 77 | 1013.6 |
| 20260507155614 | 65 | 158 | 3.0 | 10.0 | 0.00 | 0.01 | 0.01 | 77 | 1013.3 |
| 20260507155528 | 64 | 138 | 5.0 | 11.0 | 0.00 | 0.01 | 0.01 | 77 | 1013.6 |
| 20260507155108 | 65 | 163 | 6.0 | 11.0 | 0.00 | 0.01 | 0.01 | 76 | 1013.3 |
| 20260507155029 | 65 | 208 | 5.0 | 11.0 | 0.00 | 0.01 | 0.01 | 76 | 1013.5 |
| 20260507154606 | 65 | 148 | 5.0 | 11.0 | 0.00 | 0.01 | 0.01 | 76 | 1013.4 |
| 20260507154542 | 65 | 143 | 5.0 | 11.0 | 0.00 | 0.01 | 0.01 | 75 | 1013.6 |
| 20260507154104 | 65 | 161 | 4.0 | 9.0 | 0.00 | 0.01 | 0.01 | 75 | 1013.4 |
| 20260507154028 | 65 | 163 | 4.0 | 9.0 | 0.00 | 0.01 | 0.01 | 74 | 1013.7 |
| 20260507153528 | 65 | 180 | 4.0 | 10.0 | 0.00 | 0.01 | 0.01 | 74 | 1013.6 |
| 20260507153101 | 65 | 185 | 3.0 | 10.0 | 0.00 | 0.01 | 0.01 | 73 | 1013.3 |
| 20260507153049 | 65 | 154 | 4.0 | 10.0 | 0.00 | 0.01 | 0.01 | 73 | 1013.6 |
| 20260507152529 | 65 | 174 | 4.0 | 10.0 | 0.00 | 0.01 | 0.01 | 73 | 1013.6 |
| 20260507152058 | 65 | 159 | 3.0 | 9.0 | 0.00 | 0.01 | 0.01 | 73 | 1013.4 |
| 20260507152029 | 65 | 179 | 3.0 | 10.0 | 0.00 | 0.01 | 0.01 | 72 | 1013.6 |
| 20260507151541 | 65 | 175 | 4.0 | 10.0 | 0.00 | 0.01 | 0.01 | 72 | 1013.7 |
| 20260507151055 | 65 | 180 | 5.0 | 9.0 | 0.00 | 0.01 | 0.01 | 73 | 1013.5 |
| 20260507151029 | 65 | 192 | 4.0 | 10.0 | 0.00 | 0.01 | 0.01 | 72 | 1013.7 |
| 20260507150553 | 65 | 171 | 4.0 | 8.0 | 0.00 | 0.01 | 0.01 | 74 | 1013.4 |
| 20260507150533 | 65 | 188 | 3.0 | 9.0 | 0.00 | 0.01 | 0.01 | 73 | 1013.6 |
| 20260507150051 | 65 | 170 | 3.0 | 9.0 | 0.00 | 0.01 | 0.01 | 74 | 1013.5 |
| 20260507150047 | 65 | 216 | 3.0 | 10.0 | 0.00 | 0.01 | 0.01 | 74 | 1013.7 |
| 20260507145551 | 65 | 202 | 6.0 | 10.0 | 0.00 | 0.01 | 0.01 | 74 | 1013.5 |
| 20260507145532 | 64 | 165 | 5.0 | 14.0 | 0.00 | 0.01 | 0.01 | 74 | 1013.8 |
| 20260507145048 | 65 | 237 | 6.0 | 15.0 | 0.00 | 0.01 | 0.01 | 75 | 1013.6 |
| 20260507145029 | 65 | 211 | 6.0 | 16.0 | 0.00 | 0.01 | 0.01 | 74 | 1013.8 |
| 20260507144547 | 65 | 229 | 8.0 | 16.0 | 0.00 | 0.01 | 0.01 | 73 | 1013.9 |
| 20260507144045 | 65 | 194 | 8.0 | 13.0 | 0.00 | 0.01 | 0.01 | 72 | 1013.7 |
| 20260507144029 | 65 | 194 | 7.0 | 14.0 | 0.00 | 0.01 | 0.01 | 71 | 1013.9 |
| 20260507143547 | 65 | 219 | 8.0 | 14.0 | 0.00 | 0.01 | 0.01 | 72 | 1013.7 |
| 20260507143532 | 65 | 198 | 7.0 | 14.0 | 0.00 | 0.01 | 0.01 | 71 | 1013.9 |
| 20260507143103 | 65 | 206 | 8.0 | 15.0 | 0.00 | 0.01 | 0.01 | 72 | 1014.0 |
| 20260507143042 | 65 | 225 | 8.0 | 15.0 | 0.00 | 0.01 | 0.01 | 73 | 1013.8 |
| 20260507142540 | 65 | 159 | 6.0 | 15.0 | 0.00 | 0.01 | 0.01 | 75 | 1013.8 |
| 20260507142529 | 65 | 184 | 6.0 | 15.0 | 0.00 | 0.01 | 0.01 | 75 | 1014.0 |
| 20260507142028 | 65 | 159 | 7.0 | 15.0 | 0.00 | 0.01 | 0.01 | 74 | 1014.0 |
| 20260507141541 | 65 | 185 | 4.0 | 10.0 | 0.00 | 0.01 | 0.01 | 74 | 1014.0 |
| 20260507141537 | 65 | 135 | 6.0 | 9.0 | 0.00 | 0.01 | 0.01 | 75 | 1013.7 |
| 20260507141035 | 65 | 179 | 5.0 | 12.0 | 0.00 | 0.01 | 0.01 | 75 | 1013.7 |
| 20260507141033 | 65 | 174 | 4.0 | 12.0 | 0.00 | 0.01 | 0.01 | 74 | 1014.0 |
| 20260507140533 | 65 | 233 | 6.0 | 12.0 | 0.00 | 0.01 | 0.01 | 74 | 1013.7 |
| 20260507140528 | 65 | 217 | 6.0 | 14.0 | 0.00 | 0.01 | 0.01 | 74 | 1014.0 |
| 20260507140106 | 65 | 180 | 4.0 | 16.0 | 0.00 | 0.01 | 0.01 | 74 | 1013.9 |
| 20260507140032 | 65 | 180 | 5.0 | 14.0 | 0.00 | 0.01 | 0.01 | 74 | 1013.7 |
| 20260507135530 | 65 | 200 | 8.0 | 19.0 | 0.00 | 0.01 | 0.01 | 72 | 1014.0 |
| 20260507135030 | 66 | 201 | 7.0 | 19.0 | 0.00 | 0.01 | 0.01 | 71 | 1014.0 |
| 20260507134544 | 66 | 171 | 7.0 | 17.0 | 0.00 | 0.01 | 0.01 | 70 | 1013.8 |
| 20260507134028 | 67 | 158 | 7.0 | 18.0 | 0.00 | 0.01 | 0.01 | 69 | 1013.9 |
| 20260507134025 | 67 | 176 | 8.0 | 18.0 | 0.00 | 0.01 | 0.01 | 69 | 1013.6 |
| 20260507133529 | 67 | 234 | 8.0 | 22.0 | 0.00 | 0.01 | 0.01 | 68 | 1013.6 |
| 20260507133527 | 67 | 183 | 9.0 | 18.0 | 0.00 | 0.01 | 0.01 | 69 | 1013.4 |
| 20260507133042 | 67 | 153 | 9.0 | 22.0 | 0.00 | 0.01 | 0.01 | 67 | 1013.6 |
| 20260507132528 | 68 | 202 | 12.0 | 21.0 | 0.00 | 0.01 | 0.01 | 66 | 1013.6 |
| 20260507132520 | 68 | 184 | 13.0 | 21.0 | 0.00 | 0.01 | 0.01 | 66 | 1013.3 |
| 20260507132028 | 69 | 162 | 11.0 | 21.0 | 0.00 | 0.01 | 0.01 | 65 | 1013.6 |
| 20260507132018 | 69 | 157 | 12.0 | 21.0 | 0.00 | 0.01 | 0.01 | 66 | 1013.3 |
| 20260507131543 | 70 | 222 | 9.0 | 22.0 | 0.00 | 0.01 | 0.01 | 64 | 1013.5 |
| 20260507131517 | 70 | 183 | 9.0 | 22.0 | 0.00 | 0.01 | 0.01 | 65 | 1013.2 |
| 20260507131031 | 71 | 178 | 9.0 | 22.0 | 0.00 | 0.01 | 0.01 | 63 | 1013.4 |
| 20260507131016 | 71 | 237 | 9.0 | 22.0 | 0.00 | 0.01 | 0.01 | 63 | 1013.1 |
| 20260507130531 | 71 | 182 | 9.0 | 21.0 | 0.00 | 0.01 | 0.01 | 64 | 1013.3 |
| 20260507130514 | 71 | 200 | 9.0 | 19.0 | 0.00 | 0.01 | 0.01 | 64 | 1013.0 |
| 20260507130050 | 71 | 149 | 8.0 | 21.0 | 0.00 | 0.01 | 0.01 | 63 | 1013.3 |
| 20260507130012 | 71 | 153 | 7.0 | 21.0 | 0.00 | 0.01 | 0.01 | 63 | 1013.0 |
| 20260507125532 | 71 | 142 | 13.0 | 21.0 | 0.00 | 0.01 | 0.01 | 60 | 1013.3 |
| 20260507125510 | 71 | 140 | 13.0 | 21.0 | 0.00 | 0.01 | 0.01 | 61 | 1013.1 |
| 20260507125030 | 71 | 159 | 7.0 | 17.0 | 0.00 | 0.01 | 0.01 | 62 | 1013.2 |
| 20260507125008 | 72 | 132 | 9.0 | 17.0 | 0.00 | 0.01 | 0.01 | 62 | 1013.0 |
| 20260507124549 | 73 | 145 | 10.0 | 17.0 | 0.00 | 0.01 | 0.01 | 58 | 1013.2 |
| 20260507124029 | 75 | 171 | 8.0 | 17.0 | 0.00 | 0.01 | 0.01 | 53 | 1013.1 |
| 20260507124005 | 76 | 151 | 7.0 | 17.0 | 0.00 | 0.01 | 0.01 | 54 | 1012.8 |
| 20260507123531 | 76 | 163 | 6.0 | 16.0 | 0.00 | 0.01 | 0.01 | 44 | 1013.1 |
| 20260507123057 | 76 | 165 | 6.0 | 16.0 | 0.00 | 0.01 | 0.01 | 45 | 1013.1 |
| 20260507123002 | 76 | 165 | 7.0 | 16.0 | 0.00 | 0.01 | 0.01 | 45 | 1012.8 |
| 20260507122532 | 76 | 206 | 6.0 | 15.0 | 0.00 | 0.01 | 0.01 | 46 | 1013.2 |
| 20260507122500 | 77 | 207 | 7.0 | 13.0 | 0.00 | 0.01 | 0.01 | 46 | 1012.9 |
| 20260507122030 | 76 | 223 | 8.0 | 15.0 | 0.00 | 0.01 | 0.01 | 45 | 1013.2 |
| 20260507121958 | 77 | 210 | 9.0 | 13.0 | 0.00 | 0.01 | 0.01 | 46 | 1012.9 |
| 20260507121546 | 75 | 248 | 2.0 | 17.0 | 0.00 | 0.01 | 0.01 | 49 | 1013.2 |
| 20260507121457 | 75 | 252 | 2.0 | 17.0 | 0.00 | 0.01 | 0.01 | 51 | 1012.9 |
| 20260507121029 | 75 | 173 | 4.0 | 17.0 | 0.00 | 0.01 | 0.01 | 48 | 1013.2 |
| 20260507120956 | 75 | 223 | 5.0 | 17.0 | 0.00 | 0.01 | 0.01 | 47 | 1013.0 |
| 20260507120529 | 76 | 244 | 8.0 | 18.0 | 0.00 | 0.01 | 0.01 | 48 | 1013.2 |
| 20260507120454 | 76 | 257 | 7.0 | 15.0 | 0.00 | 0.01 | 0.01 | 50 | 1012.9 |
| 20260507120044 | 75 | 235 | 7.0 | 18.0 | 0.00 | 0.01 | 0.01 | 49 | 1013.3 |
| 20260507115530 | 75 | 239 | 6.0 | 12.0 | 0.00 | 0.01 | 0.01 | 48 | 1013.3 |
| 20260507115451 | 75 | 256 | 6.0 | 12.0 | 0.00 | 0.01 | 0.01 | 49 | 1013.1 |
| 20260507115030 | 75 | 267 | 4.0 | 13.0 | 0.00 | 0.01 | 0.01 | 50 | 1013.4 |
| 20260507114545 | 75 | 243 | 6.0 | 13.0 | 0.00 | 0.01 | 0.01 | 50 | 1013.5 |
| 20260507114448 | 75 | 281 | 6.0 | 13.0 | 0.00 | 0.01 | 0.01 | 51 | 1013.1 |
| 20260507114028 | 74 | 253 | 4.0 | 13.0 | 0.00 | 0.01 | 0.01 | 54 | 1013.4 |
| 20260507113950 | 75 | 218 | 5.0 | 13.0 | 0.00 | 0.01 | 0.01 | 56 | 1013.2 |
| 20260507113530 | 74 | 205 | 6.0 | 13.0 | 0.00 | 0.01 | 0.01 | 55 | 1013.5 |
| 20260507113445 | 75 | 174 | 6.0 | 13.0 | 0.00 | 0.01 | 0.01 | 55 | 1013.3 |
| 20260507113049 | 75 | 200 | 6.0 | 13.0 | 0.00 | 0.01 | 0.01 | 56 | 1013.5 |
| 20260507112943 | 75 | 181 | 6.0 | 13.0 | 0.00 | 0.01 | 0.01 | 55 | 1013.3 |
| 20260507112529 | 74 | 197 | 6.0 | 12.0 | 0.00 | 0.01 | 0.01 | 54 | 1013.6 |
| 20260507112441 | 74 | 225 | 6.0 | 12.0 | 0.00 | 0.01 | 0.01 | 55 | 1013.3 |
| 20260507112028 | 73 | 174 | 7.0 | 15.0 | 0.00 | 0.01 | 0.01 | 54 | 1013.6 |
| 20260507111548 | 74 | 221 | 6.0 | 15.0 | 0.00 | 0.01 | 0.01 | 54 | 1013.8 |
| 20260507111438 | 74 | 209 | 7.0 | 15.0 | 0.00 | 0.01 | 0.01 | 55 | 1013.5 |
| 20260507111029 | 74 | 175 | 7.0 | 14.0 | 0.00 | 0.01 | 0.01 | 56 | 1013.8 |
| 20260507110936 | 74 | 190 | 7.0 | 14.0 | 0.00 | 0.01 | 0.01 | 56 | 1013.5 |
| 20260507110529 | 74 | 186 | 6.0 | 13.0 | 0.00 | 0.01 | 0.01 | 56 | 1013.8 |
| 20260507110046 | 73 | 152 | 5.0 | 14.0 | 0.00 | 0.01 | 0.01 | 60 | 1013.7 |
| 20260507105933 | 73 | 150 | 5.0 | 14.0 | 0.00 | 0.01 | 0.01 | 59 | 1013.4 |
| 20260507105528 | 72 | 200 | 7.0 | 15.0 | 0.00 | 0.01 | 0.01 | 60 | 1013.8 |
| 20260507105029 | 71 | 146 | 3.0 | 15.0 | 0.00 | 0.01 | 0.01 | 60 | 1013.8 |
| 20260507104930 | 72 | 152 | 4.0 | 14.0 | 0.00 | 0.01 | 0.01 | 61 | 1013.5 |
| 20260507104542 | 71 | 128 | 7.0 | 13.0 | 0.00 | 0.01 | 0.01 | 64 | 1013.8 |
| 20260507104428 | 71 | 140 | 6.0 | 11.0 | 0.00 | 0.01 | 0.01 | 65 | 1013.5 |
| 20260507104029 | 69 | 178 | 3.0 | 10.0 | 0.00 | 0.01 | 0.01 | 65 | 1013.9 |
| 20260507103931 | 69 | 205 | 4.0 | 10.0 | 0.00 | 0.01 | 0.01 | 65 | 1013.6 |
| 20260507103528 | 68 | 191 | 5.0 | 11.0 | 0.00 | 0.01 | 0.01 | 65 | 1013.9 |
| 20260507103426 | 68 | 180 | 6.0 | 11.0 | 0.00 | 0.01 | 0.01 | 65 | 1013.6 |
| 20260507103041 | 68 | 180 | 5.0 | 12.0 | 0.00 | 0.01 | 0.01 | 63 | 1013.9 |
| 20260507102924 | 68 | 184 | 5.0 | 11.0 | 0.00 | 0.01 | 0.01 | 63 | 1013.6 |
| 20260507102529 | 67 | 228 | 5.0 | 14.0 | 0.00 | 0.01 | 0.01 | 62 | 1013.9 |
| 20260507102422 | 68 | 216 | 6.0 | 13.0 | 0.00 | 0.01 | 0.01 | 62 | 1013.7 |
| 20260507102028 | 67 | 199 | 6.0 | 14.0 | 0.00 | 0.01 | 0.01 | 63 | 1014.0 |
| 20260507101921 | 68 | 181 | 7.0 | 13.0 | 0.00 | 0.01 | 0.01 | 64 | 1013.7 |
| 20260507101549 | 68 | 227 | 7.0 | 15.0 | 0.00 | 0.01 | 0.01 | 64 | 1014.0 |
| 20260507101419 | 68 | 200 | 7.0 | 12.0 | 0.00 | 0.01 | 0.01 | 65 | 1013.7 |
| 20260507101026 | 68 | 215 | 6.0 | 15.0 | 0.00 | 0.01 | 0.01 | 64 | 1014.0 |
| 20260507100918 | 68 | 192 | 6.0 | 12.0 | 0.00 | 0.01 | 0.01 | 65 | 1013.6 |
| 20260507100529 | 68 | 180 | 6.0 | 13.0 | 0.00 | 0.01 | 0.01 | 63 | 1014.0 |
| 20260507100415 | 69 | 215 | 7.0 | 11.0 | 0.00 | 0.01 | 0.01 | 63 | 1013.7 |
| 20260507100045 | 68 | 202 | 4.0 | 12.0 | 0.00 | 0.01 | 0.01 | 63 | 1014.0 |
| 20260507095914 | 69 | 227 | 5.0 | 12.0 | 0.00 | 0.01 | 0.01 | 63 | 1013.7 |
| 20260507095529 | 69 | 215 | 6.0 | 14.0 | 0.00 | 0.01 | 0.01 | 62 | 1013.9 |
| 20260507095413 | 69 | 199 | 6.0 | 13.0 | 0.00 | 0.01 | 0.01 | 63 | 1013.7 |
| 20260507095029 | 69 | 244 | 7.0 | 14.0 | 0.00 | 0.01 | 0.01 | 61 | 1013.9 |
| 20260507094911 | 70 | 234 | 8.0 | 14.0 | 0.00 | 0.01 | 0.01 | 61 | 1013.7 |
| 20260507094542 | 70 | 213 | 6.0 | 14.0 | 0.00 | 0.01 | 0.01 | 60 | 1013.9 |
| 20260507094409 | 70 | 209 | 7.0 | 14.0 | 0.00 | 0.01 | 0.01 | 60 | 1013.6 |
| 20260507094028 | 70 | 219 | 6.0 | 13.0 | 0.00 | 0.01 | 0.01 | 59 | 1013.9 |
| 20260507093911 | 71 | 246 | 6.0 | 13.0 | 0.00 | 0.01 | 0.01 | 60 | 1013.7 |
| 20260507093530 | 70 | 225 | 5.0 | 14.0 | 0.00 | 0.01 | 0.01 | 60 | 1013.9 |
| 20260507093406 | 71 | 224 | 5.0 | 14.0 | 0.00 | 0.01 | 0.01 | 62 | 1013.6 |
| 20260507093041 | 70 | 215 | 6.0 | 14.0 | 0.00 | 0.01 | 0.01 | 60 | 1013.9 |
| 20260507092904 | 70 | 246 | 7.0 | 14.0 | 0.00 | 0.01 | 0.01 | 60 | 1013.6 |
| 20260507092532 | 70 | 225 | 6.0 | 14.0 | 0.00 | 0.01 | 0.01 | 61 | 1013.8 |
| 20260507092403 | 70 | 265 | 7.0 | 14.0 | 0.00 | 0.01 | 0.01 | 61 | 1013.5 |
| 20260507092028 | 70 | 210 | 6.0 | 12.0 | 0.00 | 0.01 | 0.01 | 61 | 1013.9 |
| 20260507091901 | 71 | 179 | 7.0 | 12.0 | 0.00 | 0.01 | 0.01 | 62 | 1013.6 |
| 20260507091541 | 70 | 190 | 6.0 | 12.0 | 0.00 | 0.01 | 0.01 | 63 | 1013.8 |
| 20260507091400 | 70 | 195 | 6.0 | 12.0 | 0.00 | 0.01 | 0.01 | 64 | 1013.5 |
| 20260507091030 | 69 | 157 | 7.0 | 12.0 | 0.00 | 0.01 | 0.01 | 64 | 1013.7 |
| 20260507090858 | 69 | 207 | 7.0 | 12.0 | 0.00 | 0.01 | 0.01 | 64 | 1013.5 |
| 20260507090531 | 69 | 197 | 5.0 | 14.0 | 0.00 | 0.01 | 0.01 | 65 | 1013.7 |
| 20260507090357 | 69 | 202 | 5.0 | 14.0 | 0.00 | 0.01 | 0.01 | 66 | 1013.4 |
| 20260507090049 | 68 | 222 | 4.0 | 14.0 | 0.00 | 0.01 | 0.01 | 67 | 1013.7 |
| 20260507085855 | 68 | 147 | 6.0 | 14.0 | 0.00 | 0.01 | 0.01 | 68 | 1013.4 |
| 20260507085529 | 68 | 202 | 6.0 | 13.0 | 0.00 | 0.01 | 0.01 | 67 | 1013.7 |
| 20260507085353 | 68 | 215 | 6.0 | 13.0 | 0.00 | 0.01 | 0.01 | 68 | 1013.4 |
| 20260507085030 | 68 | 213 | 5.0 | 13.0 | 0.00 | 0.01 | 0.01 | 67 | 1013.7 |
| 20260507084851 | 68 | 204 | 5.0 | 13.0 | 0.00 | 0.01 | 0.01 | 68 | 1013.3 |
| 20260507084551 | 68 | 178 | 7.0 | 12.0 | 0.00 | 0.01 | 0.01 | 68 | 1013.5 |
| 20260507084350 | 68 | 168 | 5.0 | 12.0 | 0.00 | 0.01 | 0.01 | 70 | 1013.3 |
| 20260507084035 | 67 | 171 | 6.0 | 12.0 | 0.00 | 0.01 | 0.01 | 69 | 1013.5 |
| 20260507083530 | 67 | 177 | 4.0 | 13.0 | 0.00 | 0.01 | 0.01 | 70 | 1013.4 |
| 20260507083346 | 67 | 188 | 5.0 | 12.0 | 0.00 | 0.01 | 0.01 | 71 | 1013.1 |
| 20260507083048 | 66 | 197 | 6.0 | 13.0 | 0.00 | 0.01 | 0.01 | 71 | 1013.4 |
| 20260507082846 | 67 | 202 | 5.0 | 11.0 | 0.00 | 0.01 | 0.01 | 72 | 1013.1 |
| 20260507082528 | 66 | 181 | 6.0 | 11.0 | 0.00 | 0.01 | 0.01 | 72 | 1013.3 |
| 20260507082028 | 65 | 184 | 5.0 | 11.0 | 0.00 | 0.01 | 0.01 | 72 | 1013.4 |
| 20260507081842 | 66 | 165 | 6.0 | 11.0 | 0.00 | 0.01 | 0.01 | 74 | 1013.1 |
| 20260507081541 | 65 | 159 | 5.0 | 12.0 | 0.00 | 0.01 | 0.01 | 74 | 1013.5 |
| 20260507081340 | 65 | 173 | 5.0 | 12.0 | 0.00 | 0.01 | 0.01 | 74 | 1013.1 |
| 20260507081030 | 64 | 171 | 6.0 | 12.0 | 0.00 | 0.01 | 0.01 | 73 | 1013.3 |
| 20260507080529 | 64 | 214 | 6.0 | 11.0 | 0.00 | 0.01 | 0.01 | 74 | 1013.4 |
| 20260507080337 | 65 | 131 | 4.0 | 11.0 | 0.00 | 0.01 | 0.01 | 75 | 1013.0 |
| 20260507080057 | 64 | 154 | 4.0 | 12.0 | 0.00 | 0.01 | 0.01 | 75 | 1013.3 |
| 20260507075835 | 65 | 117 | 6.0 | 12.0 | 0.00 | 0.01 | 0.01 | 75 | 1013.1 |
| 20260507075529 | 64 | 189 | 6.0 | 12.0 | 0.00 | 0.01 | 0.01 | 75 | 1013.3 |
| 20260507075333 | 64 | 124 | 6.0 | 12.0 | 0.00 | 0.01 | 0.01 | 76 | 1013.0 |
| 20260507075028 | 64 | 142 | 5.0 | 11.0 | 0.00 | 0.01 | 0.01 | 76 | 1013.3 |
| 20260507074544 | 64 | 147 | 5.0 | 12.0 | 0.00 | 0.01 | 0.01 | 75 | 1013.2 |
| 20260507074028 | 64 | 163 | 5.0 | 12.0 | 0.00 | 0.01 | 0.01 | 75 | 1013.2 |
| 20260507073828 | 64 | 188 | 5.0 | 12.0 | 0.00 | 0.01 | 0.01 | 75 | 1012.9 |
| 20260507073530 | 64 | 181 | 5.0 | 10.0 | 0.00 | 0.01 | 0.01 | 76 | 1013.3 |
| 20260507073327 | 64 | 176 | 6.0 | 10.0 | 0.00 | 0.01 | 0.01 | 76 | 1012.9 |
| 20260507073052 | 64 | 152 | 5.0 | 11.0 | 0.00 | 0.01 | 0.01 | 75 | 1013.2 |
| 20260507072529 | 64 | 180 | 5.0 | 11.0 | 0.00 | 0.01 | 0.01 | 75 | 1013.3 |
| 20260507072323 | 65 | 146 | 5.0 | 13.0 | 0.00 | 0.01 | 0.01 | 76 | 1012.9 |
| 20260507072028 | 64 | 156 | 5.0 | 16.0 | 0.00 | 0.01 | 0.01 | 75 | 1013.2 |
| 20260507071822 | 65 | 202 | 6.0 | 16.0 | 0.00 | 0.01 | 0.01 | 76 | 1012.9 |
| 20260507071558 | 64 | 180 | 6.0 | 16.0 | 0.00 | 0.01 | 0.01 | 75 | 1013.2 |
| 20260507071032 | 64 | 169 | 4.0 | 13.0 | 0.00 | 0.01 | 0.01 | 77 | 1013.2 |
| 20260507070819 | 65 | 144 | 5.0 | 14.0 | 0.00 | 0.01 | 0.01 | 78 | 1012.8 |
| 20260507070529 | 64 | 204 | 6.0 | 14.0 | 0.00 | 0.01 | 0.01 | 77 | 1013.1 |
| 20260507070043 | 64 | 202 | 4.0 | 14.0 | 0.00 | 0.01 | 0.01 | 78 | 1013.1 |
| 20260507065816 | 65 | 171 | 4.0 | 11.0 | 0.00 | 0.01 | 0.01 | 78 | 1012.8 |
| 20260507065528 | 64 | 178 | 4.0 | 11.0 | 0.00 | 0.01 | 0.01 | 78 | 1013.0 |
| 20260507065028 | 64 | 155 | 4.0 | 10.0 | 0.00 | 0.01 | 0.01 | 78 | 1013.0 |
| 20260507064829 | 64 | 144 | 5.0 | 10.0 | 0.00 | 0.01 | 0.01 | 78 | 1012.7 |
| 20260507064546 | 64 | 164 | 5.0 | 12.0 | 0.00 | 0.01 | 0.01 | 77 | 1013.0 |
| 20260507064311 | 65 | 141 | 5.0 | 12.0 | 0.00 | 0.01 | 0.01 | 78 | 1012.7 |
| 20260507064028 | 64 | 159 | 4.0 | 12.0 | 0.00 | 0.01 | 0.01 | 78 | 1013.1 |
| 20260507063809 | 64 | 175 | 6.0 | 12.0 | 0.00 | 0.01 | 0.01 | 78 | 1012.7 |
| 20260507063529 | 64 | 187 | 5.0 | 12.0 | 0.00 | 0.01 | 0.01 | 78 | 1013.1 |
| 20260507063042 | 64 | 160 | 6.0 | 12.0 | 0.00 | 0.01 | 0.01 | 77 | 1013.0 |
| 20260507062805 | 64 | 190 | 5.0 | 9.0 | 0.00 | 0.01 | 0.01 | 79 | 1012.7 |
| 20260507062528 | 64 | 138 | 4.0 | 8.0 | 0.00 | 0.01 | 0.01 | 79 | 1013.0 |
| 20260507062306 | 64 | 164 | 3.0 | 8.0 | 0.00 | 0.01 | 0.01 | 81 | 1012.7 |
| 20260507062028 | 64 | 177 | 4.0 | 7.0 | 0.00 | 0.01 | 0.01 | 81 | 1013.0 |
| 20260507061802 | 64 | 147 | 3.0 | 6.0 | 0.00 | 0.01 | 0.01 | 81 | 1012.7 |
| 20260507061544 | 63 | 137 | 2.0 | 9.0 | 0.00 | 0.01 | 0.01 | 81 | 1012.9 |
| 20260507061301 | 64 | 163 | 3.0 | 9.0 | 0.00 | 0.01 | 0.01 | 81 | 1012.6 |
| 20260507061028 | 63 | 167 | 2.0 | 9.0 | 0.00 | 0.01 | 0.01 | 81 | 1013.0 |
| 20260507060800 | 64 | 145 | 3.0 | 9.0 | 0.00 | 0.01 | 0.01 | 81 | 1012.6 |
| 20260507060529 | 63 | 142 | 3.0 | 9.0 | 0.00 | 0.01 | 0.01 | 81 | 1012.8 |
| 20260507060252 | 63 | 135 | 4.0 | 8.0 | 0.00 | 0.01 | 0.01 | 82 | 1012.6 |
| 20260507060044 | 63 | 140 | 3.0 | 6.0 | 0.00 | 0.01 | 0.01 | 82 | 1012.9 |
| 20260507055746 | 63 | 172 | 4.0 | 6.0 | 0.00 | 0.01 | 0.01 | 83 | 1012.6 |
| 20260507055529 | 62 | 169 | 2.0 | 6.0 | 0.00 | 0.01 | 0.01 | 83 | 1012.9 |
| 20260507055030 | 62 | 174 | 2.0 | 6.0 | 0.00 | 0.01 | 0.01 | 84 | 1012.9 |
| 20260507054549 | 61 | 165 | 3.0 | 6.0 | 0.00 | 0.01 | 0.01 | 85 | 1012.8 |
| 20260507054241 | 62 | 82 | 3.0 | 5.0 | 0.00 | 0.01 | 0.01 | 86 | 1012.5 |
| 20260507054029 | 61 | 140 | 2.0 | 7.0 | 0.00 | 0.01 | 0.01 | 86 | 1012.8 |
| 20260507053743 | 62 | 148 | 3.0 | 7.0 | 0.00 | 0.01 | 0.01 | 87 | 1012.5 |
| 20260507053529 | 61 | 125 | 2.0 | 7.0 | 0.00 | 0.01 | 0.01 | 86 | 1012.7 |
| 20260507053238 | 61 | 153 | 2.0 | 7.0 | 0.00 | 0.01 | 0.01 | 87 | 1012.5 |
| 20260507053046 | 61 | 151 | 3.0 | 7.0 | 0.00 | 0.01 | 0.01 | 87 | 1012.7 |
| 20260507052528 | 60 | 150 | 3.0 | 7.0 | 0.00 | 0.01 | 0.01 | 87 | 1012.7 |
| 20260507052235 | 61 | 148 | 4.0 | 6.0 | 0.00 | 0.01 | 0.01 | 88 | 1012.4 |
| 20260507052029 | 60 | 155 | 3.0 | 6.0 | 0.00 | 0.01 | 0.01 | 87 | 1012.7 |
| 20260507051732 | 60 | 147 | 2.0 | 5.0 | 0.00 | 0.01 | 0.01 | 88 | 1012.4 |
| 20260507051541 | 60 | 184 | 2.0 | 5.0 | 0.00 | 0.01 | 0.01 | 88 | 1012.7 |
| 20260507051231 | 60 | 142 | 3.0 | 5.0 | 0.00 | 0.01 | 0.01 | 89 | 1012.3 |
| 20260507051029 | 60 | 159 | 1.0 | 5.0 | 0.00 | 0.01 | 0.01 | 88 | 1012.6 |
| 20260507050730 | 60 | 149 | 2.0 | 4.0 | 0.00 | 0.01 | 0.01 | 89 | 1012.2 |
| 20260507050528 | 59 | 132 | 1.0 | 5.0 | 0.00 | 0.01 | 0.01 | 89 | 1012.5 |
| 20260507050228 | 60 | 183 | 1.0 | 4.0 | 0.00 | 0.01 | 0.01 | 89 | 1012.2 |
| 20260507050048 | 59 | 185 | 1.0 | 5.0 | 0.00 | 0.01 | 0.01 | 89 | 1012.5 |
| 20260507045716 | 60 | 188 | 2.0 | 4.0 | 0.00 | 0.01 | 0.01 | 89 | 1012.1 |
| 20260507045528 | 59 | 149 | 2.0 | 5.0 | 0.00 | 0.01 | 0.01 | 89 | 1012.3 |
| 20260507045205 | 59 | 155 | 2.0 | 5.0 | 0.00 | 0.01 | 0.01 | 90 | 1011.9 |
| 20260507045030 | 59 | 138 | 1.0 | 5.0 | 0.00 | 0.01 | 0.01 | 89 | 1012.2 |
| 20260507044703 | 59 | 164 | 2.0 | 5.0 | 0.00 | 0.01 | 0.01 | 90 | 1011.9 |
| 20260507044542 | 59 | 144 | 2.0 | 5.0 | 0.00 | 0.01 | 0.01 | 89 | 1012.2 |
| 20260507044156 | 59 | 152 | 2.0 | 5.0 | 0.00 | 0.01 | 0.01 | 90 | 1011.8 |
| 20260507044029 | 58 | 144 | 2.0 | 6.0 | 0.00 | 0.01 | 0.01 | 89 | 1012.1 |
| 20260507043529 | 58 | 144 | 1.0 | 6.0 | 0.00 | 0.01 | 0.01 | 90 | 1011.9 |
| 20260507043153 | 59 | 126 | 2.0 | 5.0 | 0.00 | 0.01 | 0.01 | 90 | 1011.6 |
| 20260507043041 | 58 | 143 | 1.0 | 4.0 | 0.00 | 0.01 | 0.01 | 90 | 1011.8 |
| 20260507042530 | 58 | 121 | 2.0 | 5.0 | 0.00 | 0.01 | 0.01 | 90 | 1011.8 |
| 20260507042150 | 58 | 144 | 2.0 | 5.0 | 0.00 | 0.01 | 0.01 | 91 | 1011.5 |
| 20260507042028 | 58 | 154 | 2.0 | 5.0 | 0.00 | 0.01 | 0.01 | 90 | 1011.8 |
| 20260507041648 | 58 | 142 | 2.0 | 4.0 | 0.00 | 0.01 | 0.01 | 91 | 1011.4 |
| 20260507041541 | 58 | 136 | 1.0 | 4.0 | 0.00 | 0.01 | 0.01 | 90 | 1011.7 |
| 20260507041145 | 58 | 148 | 2.0 | 4.0 | 0.00 | 0.01 | 0.01 | 90 | 1011.5 |
| 20260507041028 | 57 | 159 | 1.0 | 4.0 | 0.00 | 0.01 | 0.01 | 90 | 1011.6 |
| 20260507040640 | 58 | 144 | 0.0 | 3.0 | 0.00 | 0.01 | 0.01 | 90 | 1011.3 |
| 20260507040530 | 57 | 0 | 0.0 | 3.0 | 0.00 | 0.01 | 0.01 | 90 | 1011.5 |
| 20260507040138 | 58 | 132 | 0.0 | 3.0 | 0.00 | 0.01 | 0.01 | 90 | 1011.2 |
| 20260507040059 | 57 | 0 | 0.0 | 3.0 | 0.00 | 0.01 | 0.01 | 90 | 1011.5 |
| 20260507035640 | 58 | 132 | 1.0 | 2.0 | 0.00 | 0.01 | 0.01 | 90 | 1011.2 |
| 20260507035529 | 57 | 132 | 0.0 | 2.0 | 0.00 | 0.01 | 0.01 | 89 | 1011.5 |
| 20260507035130 | 58 | 132 | 0.0 | 0.0 | 0.00 | 0.01 | 0.01 | 90 | 1011.2 |
| 20260507035028 | 57 | 0 | 0.0 | 0.0 | 0.00 | 0.01 | 0.01 | 89 | 1011.5 |
| 20260507034554 | 57 | 0 | 0.0 | 0.0 | 0.00 | 0.01 | 0.01 | 89 | 1011.5 |
| 20260507034126 | 58 | 132 | 0.0 | 0.0 | 0.00 | 0.01 | 0.01 | 89 | 1011.2 |
| 20260507034031 | 57 | 0 | 0.0 | 0.0 | 0.00 | 0.01 | 0.01 | 89 | 1011.5 |
| 20260507033532 | 58 | 0 | 0.0 | 1.0 | 0.00 | 0.01 | 0.01 | 88 | 1011.4 |
| 20260507033112 | 58 | 132 | 0.0 | 1.0 | 0.01 | 0.01 | 0.01 | 89 | 1011.2 |
| 20260507033045 | 58 | 0 | 0.0 | 1.0 | 0.00 | 0.01 | 0.01 | 88 | 1011.4 |
| 20260507032606 | 58 | 132 | 0.0 | 1.0 | 0.01 | 0.01 | 0.01 | 89 | 1011.2 |
| 20260507032528 | 58 | 132 | 0.0 | 1.0 | 0.01 | 0.01 | 0.01 | 88 | 1011.5 |
| 20260507032105 | 59 | 132 | 0.0 | 1.0 | 0.01 | 0.01 | 0.01 | 88 | 1011.3 |
| 20260507032032 | 58 | 0 | 0.0 | 2.0 | 0.01 | 0.01 | 0.01 | 88 | 1011.4 |
| 20260507031603 | 59 | 132 | 0.0 | 2.0 | 0.01 | 0.01 | 0.01 | 88 | 1011.2 |
| 20260507031541 | 58 | 0 | 0.0 | 3.0 | 0.01 | 0.01 | 0.01 | 88 | 1011.3 |
| 20260507031101 | 59 | 132 | 2.0 | 3.0 | 0.01 | 0.01 | 0.01 | 88 | 1011.1 |
| 20260507031029 | 59 | 132 | 1.0 | 3.0 | 0.01 | 0.01 | 0.01 | 87 | 1011.3 |
| 20260507030539 | 59 | 132 | 1.0 | 3.0 | 0.01 | 0.01 | 0.01 | 87 | 1011.1 |
| 20260507030529 | 59 | 132 | 1.0 | 3.0 | 0.01 | 0.01 | 0.01 | 87 | 1011.3 |
| 20260507030048 | 59 | 132 | 1.0 | 3.0 | 0.01 | 0.01 | 0.01 | 86 | 1011.3 |
| 20260507030037 | 60 | 132 | 2.0 | 3.0 | 0.01 | 0.01 | 0.01 | 87 | 1011.1 |
| 20260507025537 | 60 | 119 | 2.0 | 3.0 | 0.01 | 0.01 | 0.01 | 86 | 1010.9 |
| 20260507025528 | 59 | 119 | 1.0 | 3.0 | 0.01 | 0.01 | 0.01 | 85 | 1011.2 |
| 20260507025035 | 60 | 248 | 0.0 | 0.0 | 0.01 | 0.01 | 0.01 | 85 | 1011.0 |
| 20260507025028 | 60 | 0 | 0.0 | 0.0 | 0.01 | 0.01 | 0.01 | 84 | 1011.3 |
| 20260507024540 | 60 | 0 | 0.0 | 2.0 | 0.01 | 0.01 | 0.01 | 84 | 1011.3 |
| 20260507024032 | 61 | 248 | 0.0 | 2.0 | 0.01 | 0.01 | 0.01 | 83 | 1011.0 |
| 20260507023530 | 61 | 248 | 0.0 | 3.0 | 0.00 | 0.00 | 0.00 | 81 | 1011.5 |
| 20260507023524 | 62 | 248 | 1.0 | 2.0 | 0.00 | 0.00 | 0.00 | 82 | 1011.2 |
| 20260507023047 | 62 | 242 | 0.0 | 3.0 | 0.00 | 0.00 | 0.00 | 79 | 1011.5 |
| 20260507023007 | 62 | 242 | 1.0 | 3.0 | 0.00 | 0.00 | 0.00 | 79 | 1011.3 |
| 20260507022530 | 62 | 0 | 1.0 | 4.0 | 0.00 | 0.00 | 0.00 | 77 | 1011.6 |
| 20260507022510 | 62 | 242 | 1.0 | 3.0 | 0.00 | 0.00 | 0.00 | 78 | 1011.3 |
| 20260507022028 | 62 | 246 | 1.0 | 4.0 | 0.00 | 0.00 | 0.00 | 76 | 1011.6 |
| 20260507022005 | 63 | 246 | 2.0 | 4.0 | 0.00 | 0.00 | 0.00 | 77 | 1011.3 |
| 20260507021546 | 62 | 265 | 1.0 | 4.0 | 0.00 | 0.00 | 0.00 | 76 | 1011.6 |
| 20260507021502 | 63 | 273 | 2.0 | 4.0 | 0.00 | 0.00 | 0.00 | 76 | 1011.3 |
| 20260507021029 | 62 | 266 | 2.0 | 4.0 | 0.00 | 0.00 | 0.00 | 75 | 1011.6 |
| 20260507020530 | 62 | 281 | 2.0 | 4.0 | 0.00 | 0.00 | 0.00 | 75 | 1011.5 |
| 20260507020459 | 63 | 281 | 2.0 | 4.0 | 0.00 | 0.00 | 0.00 | 76 | 1011.2 |
| 20260507020100 | 62 | 300 | 2.0 | 4.0 | 0.00 | 0.00 | 0.00 | 75 | 1011.5 |
| 20260507020002 | 63 | 290 | 2.0 | 4.0 | 0.00 | 0.00 | 0.00 | 76 | 1011.1 |
| 20260507015531 | 62 | 298 | 1.0 | 8.0 | 0.00 | 0.00 | 0.00 | 75 | 1011.3 |
| 20260507015030 | 62 | 315 | 2.0 | 8.0 | 0.00 | 0.00 | 0.00 | 74 | 1011.2 |
| 20260507014950 | 63 | 315 | 2.0 | 8.0 | 0.00 | 0.00 | 0.00 | 75 | 1011.0 |
| 20260507014549 | 62 | 273 | 4.0 | 8.0 | 0.00 | 0.00 | 0.00 | 74 | 1011.3 |
| 20260507014448 | 63 | 289 | 4.0 | 8.0 | 0.00 | 0.00 | 0.00 | 75 | 1011.0 |
| 20260507014030 | 62 | 284 | 3.0 | 7.0 | 0.00 | 0.00 | 0.00 | 74 | 1011.3 |
| 20260507013946 | 63 | 286 | 4.0 | 7.0 | 0.00 | 0.00 | 0.00 | 75 | 1010.9 |
| 20260507013529 | 62 | 273 | 2.0 | 8.0 | 0.00 | 0.00 | 0.00 | 74 | 1011.2 |
| 20260507013049 | 62 | 278 | 3.0 | 8.0 | 0.00 | 0.00 | 0.00 | 74 | 1011.3 |
| 20260507012943 | 63 | 287 | 3.0 | 8.0 | 0.00 | 0.00 | 0.00 | 74 | 1010.9 |
| 20260507012529 | 62 | 265 | 3.0 | 9.0 | 0.00 | 0.00 | 0.00 | 74 | 1011.1 |
| 20260507012029 | 62 | 275 | 4.0 | 9.0 | 0.00 | 0.00 | 0.00 | 74 | 1011.1 |
| 20260507011944 | 62 | 279 | 4.0 | 9.0 | 0.00 | 0.00 | 0.00 | 74 | 1010.9 |
| 20260507011556 | 62 | 283 | 3.0 | 9.0 | 0.00 | 0.00 | 0.00 | 74 | 1011.0 |
| 20260507011029 | 62 | 226 | 4.0 | 9.0 | 0.00 | 0.00 | 0.00 | 74 | 1011.1 |
| 20260507010937 | 62 | 273 | 5.0 | 9.0 | 0.00 | 0.00 | 0.00 | 75 | 1010.8 |
| 20260507010529 | 61 | 263 | 3.0 | 9.0 | 0.00 | 0.00 | 0.00 | 75 | 1011.1 |
| 20260507010438 | 61 | 299 | 4.0 | 9.0 | 0.00 | 0.00 | 0.00 | 76 | 1010.8 |
| 20260507010044 | 60 | 255 | 3.0 | 9.0 | 0.00 | 0.00 | 0.00 | 76 | 1011.1 |
| 20260507005934 | 61 | 270 | 3.0 | 4.0 | 0.00 | 0.00 | 0.00 | 76 | 1010.8 |
| 20260507005529 | 60 | 286 | 2.0 | 7.0 | 0.00 | 0.00 | 0.00 | 76 | 1011.1 |
| 20260507005030 | 60 | 254 | 3.0 | 7.0 | 0.00 | 0.00 | 0.00 | 76 | 1011.1 |
| 20260507004930 | 60 | 273 | 3.0 | 6.0 | 0.00 | 0.00 | 0.00 | 76 | 1010.8 |
| 20260507004552 | 60 | 253 | 1.0 | 7.0 | 0.00 | 0.00 | 0.00 | 75 | 1011.2 |
| 20260507004428 | 60 | 252 | 2.0 | 6.0 | 0.00 | 0.00 | 0.00 | 76 | 1010.8 |
| 20260507004029 | 59 | 244 | 2.0 | 6.0 | 0.00 | 0.00 | 0.00 | 76 | 1011.2 |
| 20260507003530 | 59 | 256 | 2.0 | 4.0 | 0.00 | 0.00 | 0.00 | 76 | 1011.2 |
| 20260507003425 | 59 | 249 | 2.0 | 4.0 | 0.00 | 0.00 | 0.00 | 76 | 1010.9 |
| 20260507003041 | 58 | 238 | 2.0 | 3.0 | 0.00 | 0.00 | 0.00 | 76 | 1011.2 |
| 20260507002924 | 59 | 252 | 2.0 | 3.0 | 0.00 | 0.00 | 0.00 | 76 | 1010.9 |
| 20260507002528 | 58 | 236 | 1.0 | 3.0 | 0.00 | 0.00 | 0.00 | 74 | 1011.3 |
| 20260507002422 | 59 | 222 | 2.0 | 3.0 | 0.00 | 0.00 | 0.00 | 74 | 1011.0 |
| 20260507002029 | 58 | 232 | 0.0 | 2.0 | 0.00 | 0.00 | 0.00 | 73 | 1011.3 |
| 20260507001921 | 59 | 232 | 1.0 | 2.0 | 0.00 | 0.00 | 0.00 | 74 | 1011.0 |
| 20260507001550 | 58 | 0 | 0.0 | 4.0 | 0.00 | 0.00 | 0.00 | 73 | 1011.3 |
| 20260507001028 | 58 | 218 | 1.0 | 4.0 | 0.00 | 0.00 | 0.00 | 74 | 1011.4 |
| 20260507000907 | 59 | 183 | 2.0 | 4.0 | 0.00 | 0.00 | 0.00 | 74 | 1011.1 |
| 20260507000529 | 58 | 0 | 0.0 | 3.0 | 0.00 | 0.00 | 0.00 | 74 | 1011.4 |
| 20260507000042 | 58 | 0 | 1.0 | 3.0 | 0.00 | 0.00 | 0.00 | 74 | 1011.3 |
| 20260506235529 | 58 | 198 | 1.0 | 3.0 | 0.00 | 0.00 | 0.00 | 74 | 1011.3 |
| 20260506235402 | 58 | 199 | 1.0 | 3.0 | 0.00 | 0.00 | 0.00 | 74 | 1011.0 |
| 20260506235030 | 58 | 191 | 1.0 | 3.0 | 0.00 | 0.00 | 0.00 | 74 | 1011.3 |
| 20260506234851 | 58 | 179 | 1.0 | 3.0 | 0.00 | 0.00 | 0.00 | 74 | 1011.0 |
| 20260506234545 | 58 | 196 | 1.0 | 3.0 | 0.00 | 0.00 | 0.00 | 74 | 1011.2 |
| 20260506234029 | 58 | 200 | 1.0 | 4.0 | 0.00 | 0.00 | 0.00 | 74 | 1011.2 |
| 20260506233851 | 58 | 200 | 2.0 | 4.0 | 0.00 | 0.00 | 0.00 | 75 | 1011.0 |
| 20260506233529 | 57 | 198 | 1.0 | 4.0 | 0.00 | 0.00 | 0.00 | 75 | 1011.2 |
| 20260506233339 | 58 | 204 | 2.0 | 4.0 | 0.00 | 0.00 | 0.00 | 76 | 1010.8 |
| 20260506233043 | 57 | 169 | 1.0 | 4.0 | 0.00 | 0.00 | 0.00 | 76 | 1011.1 |
| 20260506232528 | 56 | 197 | 1.0 | 4.0 | 0.00 | 0.00 | 0.00 | 76 | 1011.1 |
| 20260506232332 | 57 | 161 | 1.0 | 4.0 | 0.00 | 0.00 | 0.00 | 77 | 1010.8 |
| 20260506232028 | 56 | 161 | 1.0 | 4.0 | 0.00 | 0.00 | 0.00 | 76 | 1011.0 |
| 20260506231831 | 57 | 161 | 2.0 | 4.0 | 0.00 | 0.00 | 0.00 | 76 | 1010.7 |
| 20260506231541 | 56 | 161 | 0.0 | 0.0 | 0.00 | 0.00 | 0.00 | 75 | 1011.0 |
| 20260506231333 | 57 | 178 | 0.0 | 0.0 | 0.00 | 0.00 | 0.00 | 76 | 1010.7 |
| 20260506231029 | 56 | 0 | 0.0 | 0.0 | 0.00 | 0.00 | 0.00 | 75 | 1010.9 |
| 20260506230529 | 56 | 0 | 0.0 | 0.0 | 0.00 | 0.00 | 0.00 | 75 | 1010.9 |
| 20260506230321 | 57 | 178 | 0.0 | 0.0 | 0.00 | 0.00 | 0.00 | 75 | 1010.6 |
| 20260506230048 | 57 | 0 | 0.0 | 0.0 | 0.00 | 0.00 | 0.00 | 74 | 1011.0 |
| 20260506225819 | 57 | 178 | 0.0 | 0.0 | 0.00 | 0.00 | 0.00 | 75 | 1010.6 |
| 20260506225528 | 57 | 0 | 0.0 | 0.0 | 0.00 | 0.00 | 0.00 | 74 | 1010.9 |
| 20260506225305 | 57 | 178 | 0.0 | 0.0 | 0.00 | 0.00 | 0.00 | 75 | 1010.7 |
| 20260506225028 | 57 | 0 | 0.0 | 0.0 | 0.00 | 0.00 | 0.00 | 74 | 1011.0 |
| 20260506224805 | 58 | 178 | 0.0 | 0.0 | 0.00 | 0.00 | 0.00 | 74 | 1010.6 |
| 20260506224540 | 57 | 0 | 0.0 | 0.0 | 0.00 | 0.00 | 0.00 | 74 | 1010.8 |
| 20260506224259 | 58 | 178 | 0.0 | 0.0 | 0.00 | 0.00 | 0.00 | 74 | 1010.7 |
| 20260506224029 | 57 | 0 | 0.0 | 0.0 | 0.00 | 0.00 | 0.00 | 73 | 1011.0 |
| 20260506223757 | 58 | 178 | 0.0 | 3.0 | 0.00 | 0.00 | 0.00 | 73 | 1010.7 |
| 20260506223529 | 57 | 0 | 0.0 | 3.0 | 0.00 | 0.00 | 0.00 | 73 | 1010.9 |
| 20260506223245 | 58 | 178 | 0.0 | 3.0 | 0.00 | 0.00 | 0.00 | 73 | 1010.7 |
| 20260506223045 | 58 | 0 | 0.0 | 3.0 | 0.00 | 0.00 | 0.00 | 73 | 1010.9 |
| 20260506222744 | 58 | 180 | 1.0 | 2.0 | 0.00 | 0.00 | 0.00 | 73 | 1010.6 |
| 20260506222529 | 58 | 180 | 0.0 | 3.0 | 0.00 | 0.00 | 0.00 | 72 | 1010.9 |
| 20260506222241 | 58 | 195 | 0.0 | 3.0 | 0.00 | 0.00 | 0.00 | 73 | 1010.6 |
| 20260506222030 | 58 | 0 | 0.0 | 3.0 | 0.00 | 0.00 | 0.00 | 72 | 1010.8 |
| 20260506221735 | 58 | 195 | 1.0 | 3.0 | 0.00 | 0.00 | 0.00 | 72 | 1010.6 |
| 20260506221545 | 58 | 195 | 1.0 | 3.0 | 0.00 | 0.00 | 0.00 | 72 | 1010.8 |
| 20260506221234 | 59 | 178 | 1.0 | 3.0 | 0.00 | 0.00 | 0.00 | 72 | 1010.6 |
| 20260506221029 | 58 | 161 | 1.0 | 3.0 | 0.00 | 0.00 | 0.00 | 72 | 1010.8 |
| 20260506220732 | 59 | 157 | 1.0 | 3.0 | 0.00 | 0.00 | 0.00 | 72 | 1010.5 |
| 20260506220529 | 58 | 200 | 0.0 | 3.0 | 0.00 | 0.00 | 0.00 | 71 | 1010.8 |
| 20260506220226 | 59 | 209 | 0.0 | 3.0 | 0.00 | 0.00 | 0.00 | 72 | 1010.5 |
| 20260506220058 | 59 | 0 | 0.0 | 5.0 | 0.00 | 0.00 | 0.00 | 72 | 1010.7 |
| 20260506215728 | 59 | 209 | 1.0 | 6.0 | 0.00 | 0.00 | 0.00 | 72 | 1010.6 |
| 20260506215528 | 59 | 209 | 1.0 | 6.0 | 0.00 | 0.00 | 0.00 | 72 | 1010.8 |
| 20260506215221 | 59 | 213 | 2.0 | 6.0 | 0.00 | 0.00 | 0.00 | 73 | 1010.6 |
| 20260506215028 | 58 | 221 | 3.0 | 6.0 | 0.00 | 0.00 | 0.00 | 73 | 1010.8 |
| 20260506214716 | 58 | 261 | 2.0 | 4.0 | 0.00 | 0.00 | 0.00 | 74 | 1010.6 |
| 20260506214545 | 58 | 215 | 1.0 | 3.0 | 0.00 | 0.00 | 0.00 | 74 | 1010.6 |
| 20260506214030 | 58 | 137 | 0.0 | 0.0 | 0.00 | 0.00 | 0.00 | 74 | 1010.6 |
| 20260506213713 | 58 | 137 | 0.0 | 0.0 | 0.00 | 0.00 | 0.00 | 74 | 1010.2 |
| 20260506213530 | 58 | 0 | 0.0 | 0.0 | 0.00 | 0.00 | 0.00 | 73 | 1010.4 |
| 20260506213050 | 58 | 0 | 0.0 | 0.0 | 0.00 | 0.00 | 0.00 | 73 | 1010.4 |
| 20260506212532 | 58 | 0 | 0.0 | 0.0 | 0.00 | 0.00 | 0.00 | 72 | 1010.5 |
| 20260506212157 | 59 | 137 | 0.0 | 0.0 | 0.00 | 0.00 | 0.00 | 72 | 1010.3 |
| 20260506212030 | 58 | 0 | 0.0 | 0.0 | 0.00 | 0.00 | 0.00 | 71 | 1010.5 |
| 20260506211542 | 58 | 0 | 0.0 | 0.0 | 0.00 | 0.00 | 0.00 | 71 | 1010.5 |
| 20260506211143 | 59 | 137 | 0.0 | 0.0 | 0.00 | 0.00 | 0.00 | 71 | 1010.3 |
| 20260506211028 | 59 | 0 | 0.0 | 0.0 | 0.00 | 0.00 | 0.00 | 71 | 1010.6 |
| 20260506210646 | 59 | 137 | 0.0 | 0.0 | 0.00 | 0.00 | 0.00 | 71 | 1010.2 |
| 20260506210531 | 59 | 0 | 0.0 | 0.0 | 0.00 | 0.00 | 0.00 | 71 | 1010.5 |
| 20260506210130 | 59 | 137 | 0.0 | 0.0 | 0.00 | 0.00 | 0.00 | 71 | 1010.2 |
| 20260506210055 | 59 | 0 | 0.0 | 0.0 | 0.00 | 0.00 | 0.00 | 70 | 1010.3 |
| 20260506205629 | 60 | 137 | 0.0 | 0.0 | 0.00 | 0.00 | 0.00 | 71 | 1010.2 |
| 20260506205531 | 59 | 0 | 0.0 | 0.0 | 0.00 | 0.00 | 0.00 | 70 | 1010.4 |
| 20260506205127 | 60 | 137 | 0.0 | 0.0 | 0.00 | 0.00 | 0.00 | 70 | 1010.2 |
| 20260506205031 | 59 | 0 | 0.0 | 0.0 | 0.00 | 0.00 | 0.00 | 69 | 1010.4 |
| 20260506204625 | 60 | 137 | 0.0 | 0.0 | 0.00 | 0.00 | 0.00 | 69 | 1010.1 |
| 20260506204544 | 59 | 0 | 0.0 | 0.0 | 0.00 | 0.00 | 0.00 | 69 | 1010.3 |
| 20260506204124 | 60 | 137 | 0.0 | 0.0 | 0.00 | 0.00 | 0.00 | 69 | 1010.0 |
| 20260506204032 | 60 | 0 | 0.0 | 0.0 | 0.00 | 0.00 | 0.00 | 69 | 1010.4 |
| 20260506203623 | 60 | 137 | 0.0 | 0.0 | 0.00 | 0.00 | 0.00 | 68 | 1010.0 |
| 20260506203528 | 60 | 0 | 0.0 | 0.0 | 0.00 | 0.00 | 0.00 | 68 | 1010.3 |
| 20260506203130 | 60 | 0 | 0.0 | 0.0 | 0.00 | 0.00 | 0.00 | 67 | 1010.3 |
| 20260506203121 | 60 | 137 | 0.0 | 0.0 | 0.00 | 0.00 | 0.00 | 68 | 1010.0 |
| 20260506202620 | 61 | 137 | 0.0 | 0.0 | 0.00 | 0.00 | 0.00 | 68 | 1010.0 |
| 20260506202530 | 60 | 0 | 0.0 | 0.0 | 0.00 | 0.00 | 0.00 | 67 | 1010.3 |
| 20260506202118 | 61 | 137 | 0.0 | 2.0 | 0.00 | 0.00 | 0.00 | 67 | 1010.0 |
| 20260506202029 | 61 | 0 | 0.0 | 3.0 | 0.00 | 0.00 | 0.00 | 67 | 1010.3 |
| 20260506201616 | 61 | 137 | 0.0 | 3.0 | 0.00 | 0.00 | 0.00 | 67 | 1010.1 |
| 20260506201541 | 61 | 0 | 0.0 | 3.0 | 0.00 | 0.00 | 0.00 | 67 | 1010.3 |
| 20260506201055 | 61 | 128 | 2.0 | 3.0 | 0.00 | 0.00 | 0.00 | 67 | 1010.2 |
| 20260506201030 | 61 | 128 | 1.0 | 3.0 | 0.00 | 0.00 | 0.00 | 67 | 1010.2 |
| 20260506200557 | 62 | 132 | 0.0 | 3.0 | 0.00 | 0.00 | 0.00 | 67 | 1010.1 |
| 20260506200528 | 61 | 0 | 0.0 | 3.0 | 0.00 | 0.00 | 0.00 | 67 | 1010.3 |
| 20260506200052 | 61 | 132 | 2.0 | 3.0 | 0.00 | 0.00 | 0.00 | 67 | 1010.0 |
| 20260506200047 | 61 | 117 | 1.0 | 3.0 | 0.00 | 0.00 | 0.00 | 66 | 1010.3 |